Time;durP1;ratioP1;P1;durP2;ratioP2;P2;SDS_P1;SDS_P2;PMS_P1;PMS_P2;Temp;Humidity;BMP_temperature;BMP_pressure;BME280_temperature;BME280_humidity;BME280_pressure;Samples;Min_cycle;Max_cycle;Signal;HPM_P1;HPM_P2
2022/11/11 00:01:07;;;;;;;10.60;5.68;;;12.10;99.90;;;;;;6130798;23;20021;-87
2022/11/11 00:03:33;;;;;;;15.73;5.95;;;;;;;;;;6130826;23;20112;-87
2022/11/11 00:06:01;;;;;;;12.00;5.25;;;;;;;;;;6155950;23;20017;-88
2022/11/11 00:08:27;;;;;;;12.55;6.63;;;;;;;;;;6157146;23;20041;-88
2022/11/11 00:10:53;;;;;;;16.77;6.65;;;;;;;;;;6156986;23;20080;-88
2022/11/11 00:13:19;;;;;;;15.30;7.00;;;;;;;;;;6156921;23;20064;-86
2022/11/11 00:15:45;;;;;;;13.75;7.20;;;;;;;;;;6155642;23;20435;-89
2022/11/11 00:26:29;;;;;;;18.88;7.80;;;;;;;;;;6155246;23;20026;-88
2022/11/11 00:28:55;;;;;;;13.10;6.97;;;;;;;;;;6156444;23;20019;-87
2022/11/11 00:31:21;;;;;;;14.98;7.57;;;;;;;;;;6154971;23;20028;-88
2022/11/11 00:33:47;;;;;;;19.00;7.57;;;;;;;;;;6154974;23;20408;-89
2022/11/11 00:36:13;;;;;;;11.38;6.38;;;;;;;;;;6130474;23;20447;-88
2022/11/11 00:38:46;;;;;;;14.52;6.90;;;;;;;;;;6137359;23;20443;-87
2022/11/11 00:41:15;;;;;;;11.57;7.22;;;11.90;99.90;;;;;;6131623;23;20032;-89
2022/11/11 00:43:42;;;;;;;17.42;7.78;;;;;;;;;;6130440;23;20016;-87
2022/11/11 00:51:38;;;;;;;19.35;8.75;;;;;;;;;;6156998;23;20444;-90
2022/11/11 00:54:04;;;;;;;10.80;7.13;;;;;;;;;;6157462;23;20014;-91
2022/11/11 00:56:30;;;;;;;12.05;7.95;;;;;;;;;;6130957;23;20060;-90
2022/11/11 00:58:56;;;;;;;16.92;8.38;;;;;;;;;;6154786;23;20013;-91
2022/11/11 01:01:22;;;;;;;16.40;9.20;;;;;;;;;;6130110;23;20028;-87
2022/11/11 01:03:48;;;;;;;14.88;7.25;;;;;;;;;;6154710;23;20020;-89
2022/11/11 01:06:14;;;;;;;10.30;6.57;;;;;;;;;;6130229;23;20048;-91
2022/11/11 01:08:41;;;;;;;13.70;7.63;;;;;;;;;;6130421;23;20095;-87
2022/11/11 01:11:18;;;;;;;14.13;7.07;;;;;;;;;;6155346;23;20088;-89
2022/11/11 01:13:45;;;;;;;14.68;6.88;;;;;;;;;;6156929;23;20021;-88
2022/11/11 01:16:15;;;;;;;16.63;8.07;;;;;;;;;;6155556;23;20390;-89
2022/11/11 01:18:41;;;;;;;17.95;7.00;;;;;;;;;;6156743;23;20116;-92
2022/11/11 01:21:14;;;;;;;28.52;8.85;;;;;;;;;;6130369;23;20016;-89
2022/11/11 01:23:40;;;;;;;17.17;8.35;;;;;;;;;;6130520;23;20021;-90
2022/11/11 01:26:09;;;;;;;16.05;7.25;;;;;;;;;;6154943;23;20092;-90
2022/11/11 01:28:35;;;;;;;11.70;7.35;;;;;;;;;;6130512;23;20103;-87
2022/11/11 01:31:02;;;;;;;10.75;6.97;;;;;;;;;;6156743;23;20350;-93
2022/11/11 01:33:28;;;;;;;16.60;7.78;;;;;;;;;;6130326;23;20021;-86
2022/11/11 01:35:54;;;;;;;11.70;7.78;;;;;;;;;;6130702;23;20049;-90
2022/11/11 01:38:20;;;;;;;17.95;7.63;;;;;;;;;;6154898;23;20014;-90
2022/11/11 01:40:47;;;;;;;16.60;7.57;;;;;;;;;;6133113;23;20021;-94
2022/11/11 01:43:20;;;;;;;12.23;6.78;;;;;;;;;;6133446;23;20013;-90
2022/11/11 01:45:46;;;;;;;11.48;7.82;;;;;;;;;;6131267;23;20014;-89
2022/11/11 01:51:10;;;;;;;13.15;7.18;;;;;;;;;;6164825;23;20045;-94
2022/11/11 01:53:36;;;;;;;15.15;7.65;;;;;;;;;;6136270;23;20021;-93
2022/11/11 01:56:02;;;;;;;15.18;7.60;;;;;;;;;;6161993;23;20017;-93
2022/11/11 01:58:29;;;;;;;18.17;8.00;;;;;;;;;;6132274;23;20026;-88
2022/11/11 02:00:56;;;;;;;12.75;7.70;;;;;;;;;;6132358;23;20446;-87
2022/11/11 02:03:22;;;;;;;20.73;8.13;;;;;;;;;;6161719;23;20056;-92
2022/11/11 02:05:54;;;;;;;15.85;7.22;;;;;;;;;;6163096;23;20072;-91
2022/11/11 02:08:31;;;;;;;18.05;8.52;;;;;;;;;;6138269;23;20018;-93
2022/11/11 02:11:00;;;;;;;14.95;7.63;;;;;;;;;;6166076;23;20017;-89
2022/11/11 02:16:11;;;;;;;20.92;8.27;;;;;;;;;;6162706;23;20017;-91
2022/11/11 02:18:37;;;;;;;15.40;7.43;;;;;;;;;;6138295;23;20021;-90
2022/11/11 02:21:03;;;;;;;20.40;7.30;;;;;;;;;;6133285;23;20018;-94
2022/11/11 02:23:35;;;;;;;14.65;8.02;;;;;;;;;;6132570;23;20013;-92
2022/11/11 02:26:02;;;;;;;15.18;8.75;;;;;;;;;;6131994;23;20029;-92
2022/11/11 02:28:31;;;;;;;11.90;7.72;;;;;;;;;;6156662;23;20451;-90
2022/11/11 02:30:57;;;;;;;18.73;8.23;;;;;;;;;;6131968;23;20033;-88
2022/11/11 02:33:23;;;;;;;20.08;9.27;;;;;;;;;;6132194;23;20404;-87
2022/11/11 02:35:57;;;;;;;17.23;9.57;;;;;;;;;;6132025;23;20030;-87
2022/11/11 02:38:23;;;;;;;13.15;8.30;;;;;;;;;;6131815;23;20447;-88
2022/11/11 02:43:34;;;;;;;15.55;7.90;;;;;;;;;;6156782;23;20021;-91
2022/11/11 02:46:02;;;;;;;18.88;8.60;;;;;;;;;;6156472;23;20028;-91
2022/11/11 02:48:28;;;;;;;19.60;8.77;;;;;;;;;;6158007;23;20462;-88
2022/11/11 02:50:54;;;;;;;17.48;9.20;;;;;;;;;;6131516;23;20025;-91
2022/11/11 02:53:21;;;;;;;16.90;8.15;;;;;;;;;;6158033;23;20048;-90
2022/11/11 02:55:47;;;;;;;18.08;9.93;;;;;;;;;;6155620;23;20359;-87
2022/11/11 02:58:14;;;;;;;16.90;9.50;;;;;;;;;;6131027;23;20339;-89
2022/11/11 03:00:41;;;;;;;15.73;9.90;;;;;;;;;;6155847;23;20020;-89
2022/11/11 03:03:07;;;;;;;13.63;8.73;;;;;;;;;;6155978;23;20021;-87
2022/11/11 03:05:33;;;;;;;13.88;9.05;;;;;;;;;;6131423;23;20014;-87
2022/11/11 03:07:59;;;;;;;15.25;9.65;;;;;;;;;;6132735;23;20018;-87
2022/11/11 03:10:25;;;;;;;19.98;9.82;;;;;;;;;;6131304;23;20044;-88
2022/11/11 03:12:51;;;;;;;20.27;9.63;;;;;;;;;;6156173;23;20447;-87
2022/11/11 03:15:17;;;;;;;18.20;9.60;;;;;;;;;;6157129;23;20025;-88
2022/11/11 03:17:43;;;;;;;15.30;9.68;;;;;;;;;;6131344;23;20017;-91
2022/11/11 03:23:03;;;;;;;15.45;11.25;;;;;;;;;;6155671;23;20018;-88
2022/11/11 03:25:39;;;;;;;20.05;10.75;;;11.70;99.90;;;;;;6155598;23;20017;-87
2022/11/11 03:28:05;;;;;;;19.23;11.73;;;;;;;;;;6131084;23;20018;-87
2022/11/11 03:30:31;;;;;;;29.50;13.65;;;;;;;;;;6130930;23;20096;-89
2022/11/11 03:32:57;;;;;;;26.25;14.02;;;;;;;;;;6131136;23;20029;-87
2022/11/11 03:35:23;;;;;;;22.02;12.95;;;;;;;;;;6156070;23;20096;-88
2022/11/11 03:40:34;;;;;;;16.67;12.43;;;;;;;;;;6156827;23;20028;-87
2022/11/11 03:43:00;;;;;;;21.30;11.13;;;;;;;;;;6130779;23;20351;-90
2022/11/11 03:45:26;;;;;;;20.98;12.88;;;;;;;;;;6130893;23;20466;-87
2022/11/11 03:47:53;;;;;;;19.08;12.98;;;;;;;;;;6155464;23;20032;-88
2022/11/11 03:50:20;;;;;;;21.33;13.27;;;;;;;;;;6155151;23;20064;-88
2022/11/11 03:52:46;;;;;;;24.75;13.80;;;;;;;;;;6155474;23;20030;-88
2022/11/11 03:55:12;;;;;;;20.27;12.52;;;;;;;;;;6157936;23;20021;-88
2022/11/11 03:57:40;;;;;;;23.15;14.23;;;;;;;;;;6155339;23;20040;-87
2022/11/11 04:00:06;;;;;;;18.60;12.73;;;;;;;;;;6131905;23;20049;-88
2022/11/11 04:10:47;;;;;;;24.80;13.70;;;;;;;;;;6155114;23;20092;-88
2022/11/11 04:16:07;;;;;;;17.65;12.07;;;;;;;;;;6155803;23;20028;-88
2022/11/11 04:26:49;;;;;;;24.08;14.48;;;;;;;;;;6157048;23;20470;-88
2022/11/11 04:29:27;;;;;;;22.50;12.65;;;;;;;;;;6132769;23;20017;-88
2022/11/11 04:34:47;;;;;;;26.02;14.05;;;11.70;99.90;;;;;;6155044;23;20032;-88
2022/11/11 04:37:14;;;;;;;20.75;13.90;;;;;;;;;;6130626;23;20151;-87
2022/11/11 04:42:25;;;;;;;26.13;15.18;;;;;;;;;;6155340;23;20161;-87
2022/11/11 04:47:36;;;;;;;22.23;14.30;;;;;;;;;;6154933;23;20024;-88
2022/11/11 04:50:03;;;;;;;20.55;13.63;;;;;;;;;;6130825;23;20026;-88
2022/11/11 04:52:29;;;;;;;25.45;14.27;;;;;;;;;;6130338;23;20017;-88
2022/11/11 04:57:47;;;;;;;20.42;14.10;;;;;;;;;;6155588;23;20304;-88
2022/11/11 05:00:14;;;;;;;23.80;14.20;;;;;;;;;;6130385;23;20067;-90
2022/11/11 05:05:25;;;;;;;26.05;16.00;;;;;;;;;;6154697;23;20080;-86
2022/11/11 05:10:36;;;;;;;24.20;15.95;;;;;;;;;;6154769;23;20017;-88
2022/11/11 05:21:20;;;;;;;27.00;15.85;;;;;;;;;;6154828;23;20021;-89
2022/11/11 05:26:34;;;;;;;25.55;15.23;;;;;;;;;;6156021;23;20021;-90
2022/11/11 05:29:01;;;;;;;29.92;17.08;;;;;;;;;;6154617;23;20316;-89
2022/11/11 05:31:27;;;;;;;28.00;16.80;;;;;;;;;;6130713;23;20419;-94
2022/11/11 05:33:53;;;;;;;25.75;14.00;;;;;;;;;;6155373;23;20394;-93
2022/11/11 05:36:20;;;;;;;26.85;16.90;;;;;;;;;;6157086;23;20021;-90
2022/11/11 05:38:46;;;;;;;24.70;15.43;;;;;;;;;;6156709;23;20148;-92
2022/11/11 05:41:12;;;;;;;27.65;15.98;;;;;;;;;;6155741;23;20036;-89
2022/11/11 05:43:41;;;;;;;28.65;17.60;;;;;;;;;;6156861;23;20013;-88
2022/11/11 05:46:09;;;;;;;26.60;16.52;;;;;;;;;;6131744;23;20304;-87
2022/11/11 05:49:13;;;;;;;34.78;17.13;;;;;;;;;;6131731;23;20097;-91
2022/11/11 05:51:26;;;;;;;26.83;15.77;;;;;;;;;;6154494;23;20076;-89
2022/11/11 05:53:52;;;;;;;30.70;17.05;;;;;;;;;;6156765;23;20033;-87
2022/11/11 05:56:18;;;;;;;23.30;16.98;;;;;;;;;;6130210;23;20083;-91
2022/11/11 05:58:44;;;;;;;27.98;17.05;;;;;;;;;;6154776;23;20053;-92
2022/11/11 06:01:10;;;;;;;31.98;17.45;;;;;;;;;;6155083;23;20080;-90
2022/11/11 06:03:36;;;;;;;27.67;16.05;;;;;;;;;;6157044;23;20065;-87
2022/11/11 06:06:03;;;;;;;25.25;15.68;;;;;;;;;;6156859;23;20028;-88
2022/11/11 06:08:32;;;;;;;25.13;17.10;;;;;;;;;;6130666;23;20013;-90
2022/11/11 06:10:58;;;;;;;25.38;15.30;;;;;;;;;;6130450;23;20021;-88
2022/11/11 06:13:24;;;;;;;28.85;15.52;;;;;;;;;;6130531;23;20020;-90
2022/11/11 06:15:50;;;;;;;29.75;16.52;;;;;;;;;;6130196;23;20358;-88
2022/11/11 06:18:16;;;;;;;26.25;15.75;;;;;;;;;;6154680;23;20509;-93
2022/11/11 06:20:42;;;;;;;26.98;16.83;;;;;;;;;;6154784;23;20022;-89
2022/11/11 06:23:08;;;;;;;29.38;16.77;;;;;;;;;;6156794;23;20017;-92
2022/11/11 06:28:18;;;;;;;27.77;17.05;;;;;;;;;;6155150;23;20025;-93
2022/11/11 06:30:54;;;;;;;26.80;15.13;;;;;;;;;;6131988;23;20017;-90
2022/11/11 06:33:20;;;;;;;26.15;16.13;;;;;;;;;;6157846;23;20088;-91
2022/11/11 06:35:47;;;;;;;29.73;17.33;;;;;;;;;;6161642;23;20009;-90
2022/11/11 06:38:13;;;;;;;25.33;16.42;;;;;;;;;;6134485;23;20018;-92
2022/11/11 06:40:41;;;;;;;26.15;16.55;;;;;;;;;;6158491;23;20024;-88
2022/11/11 06:43:07;;;;;;;27.13;16.70;;;;;;;;;;6158434;23;20320;-88
2022/11/11 06:45:35;;;;;;;37.15;16.90;;;;;;;;;;6132226;23;20017;-87
2022/11/11 06:48:01;;;;;;;28.60;16.63;;;;;;;;;;6157079;23;20033;-88
2022/11/11 06:50:28;;;;;;;34.35;17.52;;;;;;;;;;6157036;23;20022;-88
2022/11/11 06:52:54;;;;;;;25.88;15.80;;;;;;;;;;6132396;23;20052;-88
2022/11/11 06:55:20;;;;;;;28.30;17.25;;;;;;;;;;6132300;23;20370;-89
2022/11/11 06:57:47;;;;;;;26.42;17.23;;;;;;;;;;6157106;23;20021;-88
2022/11/11 07:00:13;;;;;;;30.30;16.77;;;;;;;;;;6133384;23;20443;-88
2022/11/11 07:02:39;;;;;;;25.85;15.18;;;;;;;;;;6156591;23;20093;-89
2022/11/11 07:05:06;;;;;;;27.65;16.63;;;;;;;;;;6158720;23;20021;-87
2022/11/11 07:07:32;;;;;;;29.10;16.75;;;;;;;;;;6158361;23;20013;-87
2022/11/11 07:09:58;;;;;;;24.20;16.23;;;;;;;;;;6156434;23;20021;-89
2022/11/11 07:12:24;;;;;;;28.83;17.65;;;;;;;;;;6132130;23;20053;-89
2022/11/11 07:14:50;;;;;;;27.23;17.52;;;;;;;;;;6156854;23;20025;-88
2022/11/11 07:17:16;;;;;;;27.83;17.80;;;;;;;;;;6131771;23;20057;-87
2022/11/11 07:19:42;;;;;;;28.52;17.17;;;;;;;;;;6157668;23;20427;-87
2022/11/11 07:22:08;;;;;;;29.63;18.50;;;;;;;;;;6132519;23;20021;-87
2022/11/11 07:24:35;;;;;;;33.88;17.95;;;;;;;;;;6131937;23;20105;-87
2022/11/11 07:27:01;;;;;;;28.05;16.75;;;;;;;;;;6156523;23;20017;-87
2022/11/11 07:29:28;;;;;;;29.80;18.38;;;;;;;;;;6131869;23;20017;-90
2022/11/11 07:31:54;;;;;;;27.02;17.80;;;;;;;;;;6158641;23;20044;-88
2022/11/11 07:34:27;;;;;;;27.30;17.20;;;;;;;;;;6159143;23;20013;-90
2022/11/11 07:36:53;;;;;;;31.23;17.33;;;;;;;;;;6134876;23;20343;-87
2022/11/11 07:39:19;;;;;;;29.95;18.02;;;;;;;;;;6135898;23;20021;-89
2022/11/11 07:42:06;;;;;;;24.95;16.45;;;;;;;;;;6134284;23;20013;-94
2022/11/11 07:44:51;;;;;;;27.23;18.42;;;;;;;;;;6163907;23;20036;-86
2022/11/11 07:50:44;;;;;;;28.83;17.10;;;;;;;;;;6163108;23;20033;-93
2022/11/11 07:53:10;;;;;;;31.30;19.42;;;;;;;;;;6156342;23;20403;-86
2022/11/11 07:55:37;;;;;;;23.70;16.42;;;;;;;;;;6130206;23;20018;-88
2022/11/11 07:58:03;;;;;;;29.45;19.23;;;;;;;;;;6131100;23;20022;-89
2022/11/11 08:00:29;;;;;;;31.17;17.90;;;;;;;;;;6157346;23;20072;-91
2022/11/11 08:06:18;;;;;;;30.65;18.02;;;;;;;;;;6195167;23;20023;-87
2022/11/11 08:08:44;;;;;;;26.25;16.25;;;;;;;;;;6194306;23;20067;-93
2022/11/11 08:13:39;;;;;;;31.60;18.80;;;;;;;;;;6197568;23;20021;-87
2022/11/11 08:14:07;;;;;;;28.90;17.27;;;;;;;;;;6191716;23;20039;-91
2022/11/11 08:20:04;;;;;;;32.05;17.13;;;;;;;;;;6218825;23;20013;-88
2022/11/11 08:26:14;;;;;;;26.50;18.33;;;;;;;;;;6225186;23;20043;-92
2022/11/11 08:28:40;;;;;;;32.22;15.20;;;;;;;;;;6197906;23;20448;-90
2022/11/11 08:31:06;;;;;;;31.98;19.52;;;;;;;;;;6219334;23;20016;-91
2022/11/11 08:33:32;;;;;;;25.52;16.95;;;;;;;;;;6218917;23;20021;-88
2022/11/11 08:39:26;;;;;;;25.00;18.05;;;;;;;;;;6234576;23;20009;-86
2022/11/11 08:41:52;;;;;;;23.33;15.98;;;;;;;;;;6170959;23;20415;-88
2022/11/11 08:44:18;;;;;;;30.63;19.38;;;;;;;;;;6163461;23;20346;-85
2022/11/11 08:46:44;;;;;;;25.45;18.20;;;;;;;;;;6162376;23;20021;-88
2022/11/11 08:49:12;;;;;;;40.33;18.25;;;;;;;;;;6161813;23;20538;-88
2022/11/11 08:51:38;;;;;;;28.15;17.10;;;;;;;;;;6137571;23;20017;-87
2022/11/11 08:54:04;;;;;;;33.70;18.35;;;;;;;;;;6187346;23;20072;-87
2022/11/11 08:56:30;;;;;;;28.38;18.40;;;;;;;;;;6159429;23;20052;-86
2022/11/11 08:58:56;;;;;;;28.67;16.85;;;;;;;;;;6160274;23;20450;-85
2022/11/11 09:01:22;;;;;;;29.65;16.95;;;;;;;;;;6160076;23;20023;-84
2022/11/11 09:03:48;;;;;;;25.70;18.35;;;;;;;;;;6160077;23;20013;-85
2022/11/11 09:06:15;;;;;;;33.63;17.67;;;;;;;;;;6159680;23;20046;-84
2022/11/11 09:08:42;;;;;;;31.10;17.67;;;;;;;;;;6159666;23;20071;-84
2022/11/11 09:11:08;;;;;;;25.15;14.80;;;;;;;;;;6159965;23;20386;-83
2022/11/11 09:13:34;;;;;;;26.42;16.25;;;;;;;;;;6186696;23;20017;-83
2022/11/11 09:16:00;;;;;;;28.30;18.23;;;;;;;;;;6159932;23;20020;-83
2022/11/11 09:18:27;;;;;;;31.52;18.15;;;;;;;;;;6159993;23;20048;-83
2022/11/11 09:20:53;;;;;;;31.00;18.15;;;;;;;;;;6186179;23;20017;-83
2022/11/11 09:23:19;;;;;;;31.23;17.20;;;;;;;;;;6134822;23;20459;-83
2022/11/11 09:25:45;;;;;;;25.17;16.42;;;;;;;;;;6136282;23;20473;-83
2022/11/11 09:28:12;;;;;;;34.00;18.63;;;;;;;;;;6185448;23;20045;-83
2022/11/11 09:30:38;;;;;;;25.08;15.15;;;;;;;;;;6186664;23;20017;-84
2022/11/11 09:33:04;;;;;;;28.85;16.70;;;;;;;;;;6134919;23;20021;-83
2022/11/11 09:35:31;;;;;;;30.60;17.35;;;;;;;;;;6186029;23;20342;-86
2022/11/11 09:37:58;;;;;;;28.17;17.33;;;;;;;;;;6160328;23;20454;-85
2022/11/11 09:40:26;;;;;;;31.08;18.17;;;;;;;;;;6135319;23;20017;-84
2022/11/11 09:42:52;;;;;;;27.38;16.27;;;;;;;;;;6159500;23;20025;-82
2022/11/11 09:45:27;;;;;;;34.03;17.90;;;;;;;;;;6186469;23;20083;-85
2022/11/11 09:47:56;;;;;;;28.58;18.30;;;;;;;;;;6160856;23;20404;-85
2022/11/11 09:50:23;;;;;;;33.35;18.25;;;;;;;;;;6161039;23;20025;-85
2022/11/11 09:53:08;;;;;;;28.45;17.55;;;;;;;;;;6186029;23;20462;-85
2022/11/11 09:55:40;;;;;;;27.50;17.17;;;;;;;;;;6187430;23;20024;-86
2022/11/11 09:58:45;;;;;;;22.88;16.35;;;;;;;;;;6159944;23;20462;-88
2022/11/11 10:01:11;;;;;;;;;;;11.10;99.90;;;;;;6019211;23;20475;-88
2022/11/11 10:03:42;;;;;;;26.38;16.38;;;;;;;;;;6067294;23;19917;-85
2022/11/11 10:06:10;;;;;;;29.15;16.75;;;;;;;;;;6041940;23;20376;-86
2022/11/11 10:08:36;;;;;;;29.58;17.95;;;;;;;;;;6020231;23;20042;-85
2022/11/11 10:11:03;;;;;;;26.48;17.27;;;;;;;;;;6044085;23;20093;-85
2022/11/11 10:13:31;;;;;;;29.70;18.00;;;;;;;;;;6044699;23;20030;-85
2022/11/11 10:16:12;;;;;;;26.25;16.02;;;;;;;;;;6020643;23;20014;-85
2022/11/11 10:18:41;;;;;;;27.17;16.25;;;;;;;;;;6068104;23;20368;-83
2022/11/11 10:21:39;;;;;;;24.13;15.70;;;11.20;99.90;;;;;;6020971;23;20019;-85
2022/11/11 10:24:10;;;;;;;33.53;17.27;;;;;;;;;;5983122;23;20020;-86
2022/11/11 10:26:41;;;;;;;24.92;15.82;;;;;;;;;;5959869;24;20080;-86
2022/11/11 10:29:15;;;;;;;22.77;14.68;;;;;;;;;;5960934;24;20105;-86
2022/11/11 10:31:42;;;;;;;25.20;15.00;;;;;;;;;;5999656;23;20029;-86
2022/11/11 10:34:11;;;;;;;28.10;14.75;;;;;;;;;;6097079;23;20533;-86
2022/11/11 10:36:47;;;;;;;28.20;16.05;;;;;;;;;;6073043;23;20058;-82
2022/11/11 10:39:16;;;;;;;27.38;14.93;;;;;;;;;;6073010;23;20029;-84
2022/11/11 10:41:45;;;;;;;27.10;15.98;;;;;;;;;;6072835;23;20010;-84
2022/11/11 10:44:32;;;;;;;19.95;14.32;;;;;;;;;;6072662;23;20464;-85
2022/11/11 10:47:05;;;;;;;28.00;14.30;;;;;;;;;;6049703;23;20061;-84
2022/11/11 10:49:33;;;;;;;28.45;15.50;;;;;;;;;;6074034;23;20022;-85
2022/11/11 10:52:04;;;;;;;22.80;15.32;;;;;;;;;;6096900;23;20014;-86
2022/11/11 10:54:45;;;;;;;19.88;14.23;;;;;;;;;;6098853;23;20023;-87
2022/11/11 10:57:14;;;;;;;25.80;14.98;;;;;;;;;;6049070;23;20448;-84
2022/11/11 11:00:06;;;;;;;24.48;15.73;;;;;;;;;;6049666;23;20022;-85
2022/11/11 11:02:41;;;;;;;26.40;15.73;;;;;;;;;;6178946;23;20072;-90
2022/11/11 11:05:13;;;;;;;22.10;14.13;;;;;;;;;;6160215;23;20053;-85
2022/11/11 11:07:50;;;;;;;18.65;12.40;;;;;;;;;;6156224;23;20029;-91
2022/11/11 11:10:21;;;;;;;21.17;13.70;;;;;;;;;;6134794;23;20017;-95
2022/11/11 11:12:52;;;;;;;26.15;16.55;;;;;;;;;;6159426;23;20017;-86
2022/11/11 11:15:23;;;;;;;19.77;13.30;;;;;;;;;;6158401;23;20021;-84
2022/11/11 11:18:00;;;;;;;22.15;12.85;;;;;;;;;;6158003;23;20351;-84
2022/11/11 11:20:28;;;;;;;20.58;14.02;;;;;;;;;;6158034;23;20029;-83
2022/11/11 11:23:00;;;;;;;24.38;13.85;;;;;;;;;;6161859;23;20378;-85
2022/11/11 11:25:31;;;;;;;23.77;12.98;;;;;;;;;;6157205;23;20024;-83
2022/11/11 11:28:08;;;;;;;23.73;14.25;;;;;;;;;;6131254;23;20069;-93
2022/11/11 11:30:35;;;;;;;19.92;12.50;;;;;;;;;;6157535;23;20395;-86
2022/11/11 11:33:01;;;;;;;19.20;13.45;;;;;;;;;;6158146;23;20045;-87
2022/11/11 11:35:32;;;;;;;24.42;13.63;;;;;;;;;;6155754;23;20025;-87
2022/11/11 11:37:58;;;;;;;18.67;13.77;;;;;;;;;;6131533;23;20022;-88
2022/11/11 11:40:25;;;;;;;20.17;13.32;;;;;;;;;;6156439;23;20017;-87
2022/11/11 11:42:56;;;;;;;20.17;13.00;;;;;;;;;;6156761;23;20068;-88
2022/11/11 11:45:27;;;;;;;19.58;12.80;;;;;;;;;;6132891;23;20457;-89
2022/11/11 11:47:56;;;;;;;22.23;14.55;;;;;;;;;;6156668;23;20518;-88
2022/11/11 11:50:30;;;;;;;24.58;13.43;;;;;;;;;;6156857;23;20380;-88
2022/11/11 11:52:59;;;;;;;23.55;14.32;;;;;;;;;;6132005;23;20029;-90
2022/11/11 11:55:39;;;;;;;20.98;14.02;;;;;;;;;;6131754;23;20426;-89
2022/11/11 11:58:12;;;;;;;17.23;12.57;;;;;;;;;;6156967;23;20465;-90
2022/11/11 12:00:54;;;;;;;18.88;12.57;;;;;;;;;;6156340;23;20096;-89
2022/11/11 12:03:38;;;;;;;19.33;13.25;;;;;;;;;;6132457;23;20072;-89
2022/11/11 12:06:13;;;;;;;21.42;12.40;;;;;;;;;;6134113;23;20025;-88
2022/11/11 12:15:48;;;;;;;17.77;11.23;;;;;;;;;;6187221;23;20036;-87
2022/11/11 12:18:39;;;;;;;;;;;;;;;;;;;;;
2022/11/11 12:21:21;;;;;;;16.70;11.70;;;;;;;;;;6160261;23;20017;-90
2022/11/11 12:24:06;;;;;;;21.25;12.70;;;;;;;;;;6136261;23;20329;-93
2022/11/11 12:26:56;;;;;;;16.95;11.35;;;;;;;;;;6135784;23;20071;-85
2022/11/11 12:29:37;;;;;;;22.00;12.90;;;11.40;99.90;;;;;;6042858;23;20015;-84
2022/11/11 12:32:26;;;;;;;19.02;12.88;;;11.50;99.90;;;;;;6018568;23;20445;-86
2022/11/11 12:34:52;;;;;;;22.00;12.63;;;;;;;;;;5981511;24;20053;-86
2022/11/11 12:37:24;;;;;;;27.15;14.48;;;;;;;;;;5958074;24;20020;-84
2022/11/11 12:39:52;;;;;;;19.30;13.15;;;;;;;;;;5957946;24;20057;-88
2022/11/11 12:42:28;;;;;;;23.85;14.43;;;11.40;99.90;;;;;;5957586;24;20072;-87
2022/11/11 12:44:57;;;;;;;21.38;12.95;;;;;;;;;;5957741;23;20065;-87
2022/11/11 12:47:32;;;;;;;23.42;12.55;;;;;;;;;;5981844;24;20016;-84
2022/11/11 12:50:14;;;;;;;19.42;13.13;;;11.40;99.90;;;;;;5957884;24;20020;-85
2022/11/11 12:52:52;;;;;;;20.73;13.38;;;;;;;;;;5957914;24;20103;-86
2022/11/11 12:55:30;;;;;;;20.67;12.60;;;;;;;;;;5958186;24;20431;-90
2022/11/11 12:58:16;;;;;;;21.50;13.32;;;;;;;;;;5958169;24;20020;-88
2022/11/11 13:00:57;;;;;;;23.38;14.93;;;11.30;99.90;;;;;;5981225;24;20020;-88
2022/11/11 13:03:51;;;;;;;19.25;12.73;;;11.20;99.90;;;;;;5934808;24;20405;-91
2022/11/11 13:06:30;;;;;;;19.48;13.00;;;11.40;99.90;;;;;;6011916;23;20081;-91
2022/11/11 13:08:56;;;;;;;22.42;13.70;;;;;;;;;;6047327;23;20392;-90
2022/11/11 13:11:26;;;;;;;23.02;14.45;;;;;;;;;;6068120;23;20052;-89
2022/11/11 13:13:55;;;;;;;23.10;15.18;;;;;;;;;;6154655;23;20024;-86
2022/11/11 13:16:23;;;;;;;20.77;14.55;;;11.40;99.90;;;;;;6130018;23;20052;-84
2022/11/11 13:18:53;;;;;;;23.73;15.68;;;;;;;;;;6155929;23;20022;-85
2022/11/11 13:21:34;;;;;;;26.13;14.50;;;;;;;;;;6131241;23;20013;-84
2022/11/11 13:24:00;;;;;;;25.90;15.45;;;;;;;;;;6154474;23;20060;-83
2022/11/11 13:26:32;;;;;;;29.63;15.82;;;11.30;99.90;;;;;;6129823;23;20020;-83
2022/11/11 13:29:18;;;;;;;25.45;15.88;;;11.40;99.90;;;;;;6153862;23;20053;-86
2022/11/11 13:31:45;;;;;;;23.20;15.02;;;;;;;;;;6153838;23;20117;-88
2022/11/11 13:34:12;;;;;;;23.02;15.95;;;;;;;;;;6130005;23;20013;-88
2022/11/11 13:36:47;;;;;;;30.35;16.30;;;;;;;;;;6154672;23;20025;-88
2022/11/11 13:39:21;;;;;;;26.02;16.83;;;;;;;;;;6129722;23;20059;-87
2022/11/11 13:41:52;;;;;;;27.30;14.63;;;11.20;99.90;;;;;;6153879;23;20557;-87
2022/11/11 13:44:31;;;;;;;22.17;13.32;;;;;;;;;;6154381;23;20021;-84
2022/11/11 13:47:02;;;;;;;26.63;14.38;;;11.20;99.90;;;;;;6129787;23;20093;-89
2022/11/11 13:49:45;;;;;;;24.10;14.77;;;11.20;99.90;;;;;;6129733;23;20108;-85
2022/11/11 13:52:33;;;;;;;28.48;17.48;;;11.30;99.90;;;;;;6129784;23;20466;-88
2022/11/11 13:55:08;;;;;;;23.25;14.95;;;11.40;99.90;;;;;;6154365;23;20014;-88
2022/11/11 13:57:47;;;;;;;26.83;16.33;;;11.40;99.90;;;;;;6154256;23;20355;-89
2022/11/11 14:00:17;;;;;;;26.95;15.32;;;;;;;;;;6129788;23;20020;-88
2022/11/11 14:02:43;;;;;;;23.63;16.48;;;;;;;;;;6129837;23;20033;-85
2022/11/11 14:05:09;;;;;;;25.80;15.98;;;;;;;;;;6154140;23;20024;-87
2022/11/11 14:07:47;;;;;;;27.17;16.90;;;;;;;;;;6154051;23;20096;-87
2022/11/11 14:10:16;;;;;;;24.33;15.40;;;;;;;;;;6154266;23;20354;-88
2022/11/11 14:12:49;;;;;;;28.08;15.98;;;;;;;;;;6129863;23;20355;-88
2022/11/11 14:15:34;;;;;;;24.88;16.33;;;;;;;;;;6129264;23;20049;-89
2022/11/11 14:18:00;;;;;;;23.30;16.08;;;;;;;;;;6129725;23;20458;-87
2022/11/11 14:20:29;;;;;;;22.92;16.02;;;;;;;;;;6154182;23;20044;-88
2022/11/11 14:23:15;;;;;;;27.08;15.45;;;;;;;;;;6160159;23;20019;-93
2022/11/11 14:25:41;;;;;;;25.77;16.15;;;;;;;;;;6134137;23;20014;-92
2022/11/11 14:28:28;;;;;;;21.15;15.30;;;;;;;;;;6155040;23;20029;-94
2022/11/11 14:31:17;;;;;;;23.48;15.35;;;11.50;99.90;;;;;;6137157;23;20033;-85
2022/11/11 14:33:46;;;;;;;24.38;15.60;;;;;;;;;;6177165;23;20045;-83
2022/11/11 14:36:22;;;;;;;25.65;15.55;;;;;;;;;;6176674;23;20021;-96
2022/11/11 14:38:54;;;;;;;23.73;15.35;;;11.30;99.90;;;;;;6150394;23;20041;-83
2022/11/11 14:41:39;;;;;;;23.75;15.15;;;;;;;;;;6141492;23;20018;-92
2022/11/11 14:44:26;;;;;;;24.13;16.70;;;11.40;99.90;;;;;;6130249;23;20048;-94
2022/11/11 14:47:05;;;;;;;24.05;15.75;;;;;;;;;;6134195;23;20048;-93
2022/11/11 14:49:43;;;;;;;24.95;15.93;;;;;;;;;;6131673;23;20371;-92
2022/11/11 14:52:21;;;;;;;24.52;15.50;;;;;;;;;;6158019;23;20017;-88
2022/11/11 14:55:01;;;;;;;26.30;14.95;;;11.50;99.90;;;;;;6131195;23;20076;-89
2022/11/11 14:57:41;;;;;;;20.48;14.68;;;;;;;;;;6132784;23;20074;-84
2022/11/11 15:00:20;;;;;;;26.50;15.48;;;;;;;;;;6131680;23;20156;-89
2022/11/11 15:03:07;;;;;;;21.80;15.05;;;;;;;;;;6131307;23;20057;-88
2022/11/11 15:05:33;;;;;;;23.45;14.73;;;;;;;;;;6155380;23;20021;-89
2022/11/11 15:08:05;;;;;;;23.40;14.57;;;;;;;;;;6155073;23;20025;-89
2022/11/11 15:10:41;;;;;;;26.67;16.35;;;;;;;;;;6131104;23;20463;-86
2022/11/11 15:13:16;;;;;;;25.48;16.08;;;;;;;;;;6155655;23;20100;-89
2022/11/11 15:15:45;;;;;;;23.88;16.10;;;;;;;;;;6131466;23;20029;-86
2022/11/11 15:18:24;;;;;;;27.40;16.60;;;11.30;99.90;;;;;;6131837;23;20017;-89
2022/11/11 15:21:17;;;;;;;25.15;16.58;;;11.60;99.90;;;;;;6131006;23;20040;-90
2022/11/11 15:23:56;;;;;;;29.90;16.85;;;;;;;;;;6015034;23;20191;-91
2022/11/11 15:26:48;;;;;;;24.55;16.17;;;11.30;99.90;;;;;;6014954;23;20019;-87
2022/11/11 15:29:14;;;;;;;21.75;15.50;;;;;;;;;;5991387;23;20533;-90
2022/11/11 15:32:20;;;;;;;23.77;14.75;;;11.20;99.90;;;;;;5992120;23;20019;-87
2022/11/11 15:34:52;;;;;;;21.77;15.02;;;;;;;;;;5903717;24;20077;-89
2022/11/11 15:37:21;;;;;;;27.33;17.08;;;11.40;99.90;;;;;;5903633;24;20614;-89
2022/11/11 15:39:51;;;;;;;19.90;13.13;;;;;;;;;;5903685;24;20372;-92
2022/11/11 15:42:39;;;;;;;22.83;15.93;;;11.40;99.90;;;;;;5903849;24;20021;-92
2022/11/11 15:45:30;;;;;;;25.30;15.60;;;11.40;99.90;;;;;;5903919;24;20115;-89
2022/11/11 15:47:57;;;;;;;23.85;15.65;;;;;;;;;;5880877;24;20023;-88
2022/11/11 15:50:23;;;;;;;23.27;15.00;;;;;;;;;;5903049;24;20499;-85
2022/11/11 15:52:58;;;;;;;23.63;15.15;;;11.30;99.90;;;;;;5926089;24;20025;-85
2022/11/11 15:55:24;;;;;;;27.48;15.43;;;;;;;;;;5902995;24;20062;-92
2022/11/11 15:57:50;;;;;;;23.65;14.98;;;;;;;;;;5904039;24;20021;-91
2022/11/11 16:00:29;;;;;;;24.23;16.90;;;11.30;99.90;;;;;;5940154;23;20034;-92
2022/11/11 16:02:56;;;;;;;23.17;15.73;;;;;;;;;;6043252;23;20435;-92
2022/11/11 16:05:24;;;;;;;22.70;15.75;;;11.40;99.90;;;;;;6043223;23;20023;-93
2022/11/11 16:07:51;;;;;;;24.92;16.65;;;;;;;;;;6031940;23;20050;-91
2022/11/11 16:10:20;;;;;;;21.60;15.88;;;;;;;;;;6131694;23;20026;-91